Anamosa, IA

9:56 AM CST on February 13, 2016 (GMT -0600)
Whittier | | Change Station
CLOSE
Current Station
Personal Weather Station
Location: Springville, IA
Elevation: 885 ft
Nearby Weather Stations
Active Advisory: Winter Weather Advisory

Elev 885 ft 42.08 °N, 91.46 °W | Updated 19 seconds ago

Clear
Clear
4.5 °F
Feels Like -2 °F
N
3.3
Wind Variable Wind from WNW
Gusts 4.6 mph

Today
High -- | Low -- °F
--% Chance of Precip.
Yesterday
High -- | Low -- °F
Precip. -- in
Pressure 30.64 in
Visibility 10.0 miles
Clouds Clear
Windchill -2 °F
Dew Point -6 °F
Humidity 62%
Rainfall 0.00 in
Snow Depth Not available.
7:04 AM 5:34 PM
Waxing Crescent, 32% visible
METAR KMXO 131535Z AUTO 35006KT 10SM CLR M15/M23 A3064 RMK AO2
Pressure 30.64 in
Visibility 10.0 miles
Clouds Clear
Windchill -2 °F
Dew Point -6 °F
Humidity 62%
Rainfall 0.00 in
Snow Depth Not available.
7:04 AM 5:34 PM
Waxing Crescent, 32% visible
METAR KMXO 131535Z AUTO 35006KT 10SM CLR M15/M23 A3064 RMK AO2

10-Day Weather Forecast

Almanac

Astronomy

Feb. 13, 2016 Rise Set
Actual Time
Civil Twilight
Nautical Twilight
Astronomical Twilight
Moon
Length of Visible Light
Length of Day
Tomorrow will be .
, % of the Moon is Illuminated

Today's Extremes

State Highs State Lows

Community

WunderPhotos

Upload Photos

1,892,587 photos uploaded!

WunderBlog® & News

Nearby

Air Quality

  Air Quality AQ Index Pollutant
Not available.

Snow Depth

Station Depth Elevation

Earthquake Activity

City Distance Mag. Time & Date
Minimum magnitude displayed is 2.5.

Coastal Water Temperatures

Place Temperature

Stations

Nearby Weather Stations

Station Location Temp. Windchill Dew Point Humidity Wind Precip. Elev Updated Type
                   

Watches & Warnings

Winter Weather Advisory
Issued: 7:49 AM CST Feb. 13, 2016 – National Weather Service

... Winter Weather Advisory remains in effect from 9 PM this
evening to 6 PM CST Sunday...
... Wind Chill Advisory is cancelled...

The National Weather Service in Quad Cities has cancelled the
Wind Chill Advisory.

* Timing... tonight and continuing through Sunday.

* Snow accumulations... 3 to 5 inches.

* Wind... southeast winds increasing tonight into Sunday morning
with gusts over 25 mph.

* Visibilities... less than a mile in heavier snow at times.

* Temperatures... in the single digits and teens tonight and in the
20s on Sunday.

* Impacts... snow covered and hazardous roads and low visibility
in heavier snowfall.

Precautionary/preparedness actions...

A Winter Weather Advisory for snow means that periods of snow
will cause travel difficulties. Be prepared for slick... snow
covered roads and limited visibilities... and be careful while
driving.